Naikai2 — JD2433 — position and weather

sailwx.info

Track history (hours):
 
Tides and Currents Weather Stations Pressure Air Temp Water Temp Dewpoint Dewpoint Depression Visibility Wind Speed Wind Dir Waves Ship Positions

Naikai2

Last reported at 2015-Jun-30 07:33 UTC. Time now 2015-Jul-01 06:36 UTC.
Position N 34°34' E 135°08'.

Length 28 m; draft 2.2 m.

Type: Other ship. MMSI: 431000283.

Date/timePositionNaut miles runAvg speedWind from/ knotsBaromVisibWave heightAir tempDewpointWater temp
2015-Jun-30 07:33N 34°34' E 135°08'1915.5
2015-Jun-30 06:19N 34°16' E 134°59'810.0
2015-Jun-30 05:33N 34°23' E 135°02'1514.7
2015-Jun-30 04:34N 34°31' E 135°17'6 6.1
2015-Jun-30 03:33N 34°33' E 135°24'0 0.5
2015-Jun-30 02:31N 34°33' E 135°24'5 4.8
2015-Jun-30 01:33N 34°34' E 135°19'8 8.1
2015-Jun-30 00:33N 34°39' E 135°10'0 0.1
2015-Jun-29 19:06N 34°39' E 135°10'712.4
2015-Jun-29 18:33N 34°37' E 135°02'4 3.6
2015-Jun-29 17:34N 34°35' E 135°05'4 3.9
2015-Jun-29 16:33N 34°37' E 135°10'2 2.3
2015-Jun-29 15:33N 34°39' E 135°10'1 0.1
2015-Jun-29 03:33N 34°39' E 135°11'2 2.0
2015-Jun-29 02:33N 34°39' E 135°14'1010.2
2015-Jun-29 01:33N 34°33' E 135°24'6 6.1
2015-Jun-29 00:33N 34°33' E 135°17'1815.4
2015-Jun-28 23:23N 34°20' E 135°01'1012.1
2015-Jun-28 22:33N 34°10' E 134°60'7 6.8
2015-Jun-28 21:29N 34°18' E 134°58'1314.3
2015-Jun-28 20:34N 34°30' E 135°06'1010.1
2015-Jun-28 19:33N 34°39' E 135°10'1 0.0
2015-Jun-27 19:08N 34°38' E 135°09'813.3
2015-Jun-27 18:33N 34°38' E 135°00'5 5.3
2015-Jun-27 17:34N 34°35' E 135°06'5 5.1
2015-Jun-27 16:33N 34°39' E 135°10'8 1.3
2015-Jun-27 10:33N 34°32' E 135°08'1515.0
2015-Jun-27 09:32N 34°18' E 134°59'9 8.0
2015-Jun-27 08:27N 34°26' E 135°02'8 9.5
2015-Jun-27 07:34N 34°34' E 135°05'7 0.2
2015-Jun-26 02:14N 34°37' E 134°58'710.2
2015-Jun-26 01:33N 34°35' E 135°06'7 6.8
2015-Jun-26 00:33N 34°29' E 135°06'1110.7
2015-Jun-25 23:33N 34°19' E 135°00'6 5.4
2015-Jun-25 22:25N 34°13' E 135°00'1213.3
2015-Jun-25 21:33N 34°24' E 135°02'1414.1
2015-Jun-25 20:34N 34°37' E 135°09'2 2.3
2015-Jun-25 19:34N 34°39' E 135°10'1 0.1
2015-Jun-25 04:33N 34°40' E 135°11'7 7.0
2015-Jun-25 03:34N 34°36' E 135°04'4 4.1
2015-Jun-25 02:33N 34°38' E 135°00'2 2.4
2015-Jun-25 01:33N 34°37' E 135°03'0 0.1
2015-Jun-24 19:33N 34°37' E 135°03'2 1.7
2015-Jun-24 18:33N 34°36' E 135°04'6 5.8
2015-Jun-24 17:33N 34°39' E 135°10'2 0.2
2015-Jun-24 08:33N 34°37' E 135°10'1615.2
2015-Jun-24 07:30N 34°23' E 135°02'1 1.0
2015-Jun-24 06:21N 34°22' E 135°01'1214.8
2015-Jun-24 05:33N 34°30' E 135°12'1010.3
2015-Jun-24 04:31N 34°33' E 135°24'3 2.8
2015-Jun-24 03:33N 34°34' E 135°21'1010.0
2015-Jun-24 02:33N 34°39' E 135°10'0 0.0
2015-Jun-24 01:33N 34°39' E 135°10'0 0.0
2015-Jun-24 00:32N 34°39' E 135°10'4 4.2
2015-Jun-23 23:33N 34°37' E 135°06'2 2.1
2015-Jun-23 22:33N 34°36' E 135°03'6 6.2
2015-Jun-23 21:33N 34°39' E 135°10'13 0.5
2015-Jun-22 19:31N 34°28' E 135°01'8 8.4
2015-Jun-22 18:33N 34°36' E 135°01'2 2.1
2015-Jun-22 17:33N 34°36' E 135°04'6 5.8
2015-Jun-22 16:33N 34°39' E 135°10'1 0.1
2015-Jun-22 03:33N 34°39' E 135°11'8 8.1
2015-Jun-22 02:33N 34°36' E 135°20'4 3.5
2015-Jun-22 01:28N 34°33' E 135°24'7 7.7
2015-Jun-22 00:33N 34°36' E 135°16'6 5.5
2015-Jun-21 23:33N 34°39' E 135°10'0 0.0
2015-Jun-21 22:33N 34°39' E 135°10'1 0.0
2015-Jun-20 11:33N 34°38' E 135°10'1110.9
2015-Jun-20 10:32N 34°36' E 134°56'10 9.9
2015-Jun-20 09:33N 34°37' E 135°08'2 2.2
2015-Jun-20 08:33N 34°39' E 135°10'  
Track history (hours):
 
Tides and Currents Weather Stations Pressure Air Temp Water Temp Dewpoint Dewpoint Depression Visibility Wind Speed Wind Dir Waves Ship Positions

Naikai2

Last reported at 2015-Jun-30 07:33 UTC. Time now 2015-Jul-01 06:36 UTC.
Position N 34°34' E 135°08'.

Length 28 m; draft 2.2 m.

Type: Other ship. MMSI: 431000283.

Date/timePositionNaut miles runAvg speedWind from/ knotsBaromVisibWave heightAir tempDewpointWater temp
2015-Jun-30 07:33N 34°34' E 135°08'1915.5
2015-Jun-30 06:19N 34°16' E 134°59'810.0
2015-Jun-30 05:33N 34°23' E 135°02'1514.7
2015-Jun-30 04:34N 34°31' E 135°17'6 6.1
2015-Jun-30 03:33N 34°33' E 135°24'0 0.5
2015-Jun-30 02:31N 34°33' E 135°24'5 4.8
2015-Jun-30 01:33N 34°34' E 135°19'8 8.1
2015-Jun-30 00:33N 34°39' E 135°10'0 0.1
2015-Jun-29 19:06N 34°39' E 135°10'712.4
2015-Jun-29 18:33N 34°37' E 135°02'4 3.6
2015-Jun-29 17:34N 34°35' E 135°05'4 3.9
2015-Jun-29 16:33N 34°37' E 135°10'2 2.3
2015-Jun-29 15:33N 34°39' E 135°10'1 0.1
2015-Jun-29 03:33N 34°39' E 135°11'2 2.0
2015-Jun-29 02:33N 34°39' E 135°14'1010.2
2015-Jun-29 01:33N 34°33' E 135°24'6 6.1
2015-Jun-29 00:33N 34°33' E 135°17'1815.4
2015-Jun-28 23:23N 34°20' E 135°01'1012.1
2015-Jun-28 22:33N 34°10' E 134°60'7 6.8
2015-Jun-28 21:29N 34°18' E 134°58'1314.3
2015-Jun-28 20:34N 34°30' E 135°06'1010.1
2015-Jun-28 19:33N 34°39' E 135°10'1 0.0
2015-Jun-27 19:08N 34°38' E 135°09'813.3
2015-Jun-27 18:33N 34°38' E 135°00'5 5.3
2015-Jun-27 17:34N 34°35' E 135°06'5 5.1
2015-Jun-27 16:33N 34°39' E 135°10'8 1.3
2015-Jun-27 10:33N 34°32' E 135°08'1515.0
2015-Jun-27 09:32N 34°18' E 134°59'9 8.0
2015-Jun-27 08:27N 34°26' E 135°02'8 9.5
2015-Jun-27 07:34N 34°34' E 135°05'7 0.2
2015-Jun-26 02:14N 34°37' E 134°58'710.2
2015-Jun-26 01:33N 34°35' E 135°06'7 6.8
2015-Jun-26 00:33N 34°29' E 135°06'1110.7
2015-Jun-25 23:33N 34°19' E 135°00'6 5.4
2015-Jun-25 22:25N 34°13' E 135°00'1213.3
2015-Jun-25 21:33N 34°24' E 135°02'1414.1
2015-Jun-25 20:34N 34°37' E 135°09'2 2.3
2015-Jun-25 19:34N 34°39' E 135°10'1 0.1
2015-Jun-25 04:33N 34°40' E 135°11'7 7.0
2015-Jun-25 03:34N 34°36' E 135°04'4 4.1
2015-Jun-25 02:33N 34°38' E 135°00'2 2.4
2015-Jun-25 01:33N 34°37' E 135°03'0 0.1
2015-Jun-24 19:33N 34°37' E 135°03'2 1.7
2015-Jun-24 18:33N 34°36' E 135°04'6 5.8
2015-Jun-24 17:33N 34°39' E 135°10'2 0.2
2015-Jun-24 08:33N 34°37' E 135°10'1615.2
2015-Jun-24 07:30N 34°23' E 135°02'1 1.0
2015-Jun-24 06:21N 34°22' E 135°01'1214.8
2015-Jun-24 05:33N 34°30' E 135°12'1010.3
2015-Jun-24 04:31N 34°33' E 135°24'3 2.8
2015-Jun-24 03:33N 34°34' E 135°21'1010.0
2015-Jun-24 02:33N 34°39' E 135°10'0 0.0
2015-Jun-24 01:33N 34°39' E 135°10'0 0.0
2015-Jun-24 00:32N 34°39' E 135°10'4 4.2
2015-Jun-23 23:33N 34°37' E 135°06'2 2.1
2015-Jun-23 22:33N 34°36' E 135°03'6 6.2
2015-Jun-23 21:33N 34°39' E 135°10'13 0.5
2015-Jun-22 19:31N 34°28' E 135°01'8 8.4
2015-Jun-22 18:33N 34°36' E 135°01'2 2.1
2015-Jun-22 17:33N 34°36' E 135°04'6 5.8
2015-Jun-22 16:33N 34°39' E 135°10'1 0.1
2015-Jun-22 03:33N 34°39' E 135°11'8 8.1
2015-Jun-22 02:33N 34°36' E 135°20'4 3.5
2015-Jun-22 01:28N 34°33' E 135°24'7 7.7
2015-Jun-22 00:33N 34°36' E 135°16'6 5.5
2015-Jun-21 23:33N 34°39' E 135°10'0 0.0
2015-Jun-21 22:33N 34°39' E 135°10'1 0.0
2015-Jun-20 11:33N 34°38' E 135°10'1110.9
2015-Jun-20 10:32N 34°36' E 134°56'10 9.9
2015-Jun-20 09:33N 34°37' E 135°08'2 2.2
2015-Jun-20 08:33N 34°39' E 135°10'  

Dump ship's entire track history